Time;durP1;ratioP1;P1;durP2;ratioP2;P2;SDS_P1;SDS_P2;PMS_P1;PMS_P2;Temp;Humidity;BMP_temperature;BMP_pressure;BME280_temperature;BME280_humidity;BME280_pressure;Samples;Min_cycle;Max_cycle;Signal;HPM_P1;HPM_P2
2024/03/24 00:01:52;;;;;;;1.75;0.60;;;;;;;5.44;41.19;91778.91;5014852;28;20518;-82
2024/03/24 00:04:18;;;;;;;0.73;0.73;;;;;;;5.39;42.05;91795.31;4999203;28;20045;-82
2024/03/24 00:06:44;;;;;;;0.70;0.70;;;;;;;5.33;42.58;91800.81;5017364;28;20394;-82
2024/03/24 00:09:12;;;;;;;1.02;0.70;;;;;;;5.24;42.44;91789.44;5018050;28;20076;-81
2024/03/24 00:11:41;;;;;;;1.17;0.82;;;;;;;5.23;43.17;91796.47;5016071;28;20037;-84
2024/03/24 00:14:06;;;;;;;0.70;0.70;;;;;;;5.12;44.36;91795.75;5016583;28;20136;-82
2024/03/24 00:16:33;;;;;;;0.60;0.60;;;;;;;5.20;43.49;91794.38;5015339;28;20037;-82
2024/03/24 00:19:00;;;;;;;0.85;0.68;;;;;;;5.21;44.74;91783.75;5014790;28;20692;-80
2024/03/24 00:21:26;;;;;;;1.38;0.70;;;;;;;5.16;45.18;91788.22;5015251;28;20029;-82
2024/03/24 00:23:52;;;;;;;0.73;0.73;;;;;;;5.14;45.42;91783.28;5024396;28;20095;-81
2024/03/24 00:26:18;;;;;;;1.17;0.70;;;;;;;5.06;45.95;91781.25;5014000;28;21015;-82
2024/03/24 00:28:44;;;;;;;1.38;0.77;;;;;;;5.05;46.12;91763.38;5014375;28;20029;-81
2024/03/24 00:31:09;;;;;;;0.95;0.82;;;;;;;5.09;46.68;91767.75;4994765;28;20045;-83
2024/03/24 00:33:35;;;;;;;0.70;0.70;;;;;;;4.98;46.75;91755.91;4996867;28;20069;-82
2024/03/24 00:36:00;;;;;;;1.10;0.80;;;;;;;4.93;47.56;91755.91;5014820;28;20030;-82
2024/03/24 00:38:26;;;;;;;0.82;0.80;;;;;;;5.00;46.28;91746.78;4998096;28;20045;-82
2024/03/24 00:40:52;;;;;;;0.60;0.60;;;;;;;4.87;46.71;91736.25;5013729;28;20045;-81
2024/03/24 00:43:17;;;;;;;0.77;0.77;;;;;;;4.81;47.11;91743.28;4996566;28;20399;-80
2024/03/24 00:45:43;;;;;;;1.58;0.65;;;;;;;4.89;46.17;91734.94;5014467;28;20041;-80
2024/03/24 00:48:08;;;;;;;1.00;0.80;;;;;;;4.81;46.96;91732.91;5014215;28;20525;-81
2024/03/24 00:50:34;;;;;;;0.70;0.70;;;;;;;4.71;47.15;91736.34;5014372;28;20037;-82
2024/03/24 00:53:00;;;;;;;0.70;0.65;;;;;;;4.69;46.79;91728.06;5013919;28;20045;-81
2024/03/24 00:55:26;;;;;;;0.75;0.70;;;;;;;4.56;47.63;91734.59;5013282;28;20041;-83
2024/03/24 00:57:52;;;;;;;1.25;0.70;;;;;;;4.53;47.42;91742.13;5016204;28;20041;-83
2024/03/24 01:00:18;;;;;;;0.85;0.70;;;;;;;4.53;45.63;91745.50;5020080;28;20029;-83
2024/03/24 01:02:48;;;;;;;0.88;0.70;;;;;;;4.59;45.64;91743.66;5012069;28;20045;-83
2024/03/24 01:05:14;;;;;;;0.80;0.70;;;;;;;4.50;46.08;91753.03;5013904;28;20112;-83
2024/03/24 01:07:39;;;;;;;2.15;0.77;;;;;;;4.51;46.13;91762.38;5012735;28;20037;-82
2024/03/24 01:10:05;;;;;;;0.98;0.70;;;;;;;4.43;46.59;91773.28;5011052;28;20114;-83
2024/03/24 01:12:31;;;;;;;1.63;0.70;;;;;;;4.35;48.45;91772.03;5014117;28;20124;-82
2024/03/24 01:14:56;;;;;;;0.93;0.60;;;;;;;4.29;48.20;91771.25;5014442;28;20045;-82
2024/03/24 01:17:22;;;;;;;0.95;0.70;;;;;;;4.21;49.26;91777.00;5013779;28;20136;-83
2024/03/24 01:19:47;;;;;;;1.23;1.00;;;;;;;4.16;49.37;91782.16;5012682;28;20270;-82
2024/03/24 01:22:13;;;;;;;1.85;0.95;;;;;;;4.10;49.56;91785.81;5014420;28;20037;-81
2024/03/24 01:24:38;;;;;;;0.90;0.80;;;;;;;4.13;49.94;91769.75;5003916;28;20112;-82
2024/03/24 01:27:04;;;;;;;1.65;0.70;;;;;;;4.21;47.46;91771.81;5027336;28;20128;-81
2024/03/24 01:29:31;;;;;;;1.15;0.80;;;;;;;4.11;48.52;91769.25;5027615;28;20036;-81
2024/03/24 01:31:56;;;;;;;1.30;0.88;;;;;;;4.09;48.84;91771.31;5025662;28;20037;-83
2024/03/24 01:34:22;;;;;;;1.38;0.88;;;;;;;4.03;48.55;91772.34;5024886;28;20462;-81
2024/03/24 01:36:47;;;;;;;1.20;0.80;;;;;;;3.98;48.59;91765.38;5025166;28;20128;-81
2024/03/24 01:39:14;;;;;;;0.65;0.60;;;;;;;3.91;46.88;91751.94;5015026;28;20104;-83
2024/03/24 01:41:40;;;;;;;1.65;0.82;;;;;;;3.96;46.99;91757.88;4997928;28;20061;-83
2024/03/24 01:44:06;;;;;;;1.10;0.80;;;;;;;3.96;47.14;91762.28;5014133;28;20243;-82
2024/03/24 01:46:31;;;;;;;1.13;0.95;;;;;;;3.96;46.42;91757.88;5014377;28;20183;-82
2024/03/24 01:48:57;;;;;;;1.58;0.88;;;;;;;3.90;46.72;91748.56;5013804;28;20620;-82
2024/03/24 01:51:23;;;;;;;0.73;0.73;;;;;;;3.90;47.10;91748.56;5014774;28;20041;-82
2024/03/24 01:53:49;;;;;;;0.85;0.73;;;;;;;3.83;46.16;91736.91;5014421;28;20041;-82
2024/03/24 01:56:16;;;;;;;0.60;0.60;;;;;;;3.88;45.16;91744.69;5015066;28;20049;-83
2024/03/24 01:58:42;;;;;;;1.05;0.80;;;;;;;3.85;45.35;91743.41;5015493;28;20069;-82
2024/03/24 02:01:10;;;;;;;1.08;0.80;;;;;;;3.83;44.34;91747.28;5016451;28;20576;-82
2024/03/24 02:03:37;;;;;;;1.30;0.80;;;;;;;3.84;44.08;91749.63;5006521;28;20057;-82
2024/03/24 02:06:04;;;;;;;1.33;0.73;;;;;;;3.88;43.63;91749.88;5023902;28;20065;-82
2024/03/24 02:08:30;;;;;;;3.42;0.80;;;;;;;3.88;44.22;91742.09;5023556;28;20041;-81
2024/03/24 02:10:57;;;;;;;1.13;0.80;;;;;;;3.87;43.97;91743.94;5017471;28;20133;-82
2024/03/24 02:13:23;;;;;;;1.23;0.75;;;;;;;3.85;44.42;91725.28;5023208;28;20193;-81
2024/03/24 02:15:49;;;;;;;1.10;1.00;;;;;;;3.82;44.13;91715.44;5022033;28;20499;-82
2024/03/24 02:18:15;;;;;;;0.52;0.52;;;;;;;3.84;43.94;91718.53;5014140;28;20053;-82
2024/03/24 02:20:40;;;;;;;1.13;0.77;;;;;;;3.83;44.13;91722.19;5013308;28;20783;-83
2024/03/24 02:23:06;;;;;;;0.65;0.65;;;;;;;3.83;43.55;91718.81;5017048;28;21615;-83
2024/03/24 02:25:31;;;;;;;0.68;0.68;;;;;;;3.81;43.50;91723.50;5017044;28;20045;-83
2024/03/24 02:27:57;;;;;;;1.63;1.00;;;;;;;3.79;44.56;91720.38;4999942;28;20048;-82
2024/03/24 02:30:22;;;;;;;1.08;0.77;;;;;;;3.73;44.49;91717.78;5017452;28;20048;-82
2024/03/24 02:32:48;;;;;;;0.75;0.60;;;;;;;3.64;44.93;91709.00;5016121;28;20063;-82
2024/03/24 02:35:13;;;;;;;0.63;0.63;;;;;;;3.59;45.02;91696.09;5017070;28;20053;-80
2024/03/24 02:37:39;;;;;;;0.93;0.80;;;;;;;3.55;45.63;91711.34;5016275;28;20037;-82
2024/03/24 02:40:09;;;;;;;0.68;0.68;;;;;;;3.51;45.54;91700.00;5015819;28;20045;-82
2024/03/24 02:42:35;;;;;;;0.98;0.70;;;;;;;3.46;45.18;91696.63;5016279;28;20080;-82
2024/03/24 02:45:01;;;;;;;0.80;0.80;;;;;;;3.46;44.99;91699.97;5016505;28;20171;-82
2024/03/24 02:47:26;;;;;;;0.60;0.60;;;;;;;3.46;44.56;91702.56;5016798;28;20164;-82
2024/03/24 02:49:53;;;;;;;1.67;0.95;;;;;;;3.48;44.13;91690.16;5016487;28;20046;-81
2024/03/24 02:52:18;;;;;;;0.70;0.70;;;;;;;3.47;43.98;91683.44;5016825;28;20034;-81
2024/03/24 02:54:44;;;;;;;0.70;0.70;;;;;;;3.51;43.32;91694.81;5014745;28;20026;-82
2024/03/24 02:57:10;;;;;;;1.17;0.88;;;;;;;3.51;43.09;91694.81;5015540;28;20037;-82
2024/03/24 02:59:35;;;;;;;0.70;0.70;;;;;;;3.52;43.33;91688.59;4999564;28;20041;-82
2024/03/24 03:02:01;;;;;;;1.13;0.90;;;;;;;3.47;44.04;91677.50;5015507;28;20041;-82
2024/03/24 03:04:28;;;;;;;0.73;0.68;;;;;;;3.48;43.59;91679.81;5015380;28;20041;-81
2024/03/24 03:06:53;;;;;;;0.75;0.70;;;;;;;3.46;43.81;91676.69;5016790;28;20029;-82
2024/03/24 03:09:19;;;;;;;0.70;0.70;;;;;;;3.39;44.42;91675.44;5017754;28;20060;-81
2024/03/24 03:11:45;;;;;;;0.60;0.60;;;;;;;3.40;45.24;91679.56;5016644;28;20069;-82
2024/03/24 03:14:10;;;;;;;0.95;0.80;;;;;;;3.38;45.69;91672.06;4995560;28;20085;-82
2024/03/24 03:16:38;;;;;;;1.45;0.93;;;;;;;3.27;47.44;91655.00;4998437;28;20057;-81
2024/03/24 03:19:04;;;;;;;1.45;0.88;;;;;;;3.22;46.53;91655.81;4995976;28;20038;-82
2024/03/24 03:21:29;;;;;;;1.05;0.80;;;;;;;3.19;46.09;91656.31;4996005;28;20049;-82
2024/03/24 03:23:55;;;;;;;0.75;0.60;;;;;;;3.18;45.01;91659.16;4995382;28;20279;-82
2024/03/24 03:26:21;;;;;;;0.75;0.75;;;;;;;3.22;43.75;91657.59;4994697;28;20033;-82
2024/03/24 03:28:50;;;;;;;0.60;0.60;;;;;;;3.24;43.16;91642.59;4994301;28;20038;-82
2024/03/24 03:31:16;;;;;;;0.77;0.70;;;;;;;3.33;43.80;91648.78;4994666;28;20080;-81
2024/03/24 03:33:42;;;;;;;1.15;1.00;;;;;;;3.30;45.50;91651.91;4993750;28;20491;-83
2024/03/24 03:36:07;;;;;;;0.73;0.73;;;;;;;3.19;46.83;91645.97;4996639;28;20063;-82
2024/03/24 03:38:33;;;;;;;1.42;0.88;;;;;;;3.10;46.28;91642.34;4995612;28;20427;-82
2024/03/24 03:41:00;;;;;;;1.42;0.82;;;;;;;3.06;45.94;91636.16;4996721;28;20038;-82
2024/03/24 03:43:25;;;;;;;1.38;0.70;;;;;;;3.05;45.27;91630.19;4995719;28;20053;-82
2024/03/24 03:45:52;;;;;;;1.23;0.90;;;;;;;3.05;45.30;91634.59;4995702;28;20084;-82
2024/03/24 03:48:18;;;;;;;1.58;1.02;;;;;;;3.02;46.22;91633.31;4996226;28;20440;-81
2024/03/24 03:50:45;;;;;;;1.10;0.70;;;;;;;2.97;46.10;91628.13;4996210;28;20163;-82
2024/03/24 03:53:24;;;;;;;0.60;0.60;;;;;;;2.99;46.19;91626.06;4995845;28;20041;-83
2024/03/24 03:55:54;;;;;;;0.80;0.80;;;;;;;2.97;46.23;91627.38;4995537;28;20286;-82
2024/03/24 03:58:20;;;;;;;0.80;0.80;;;;;;;2.95;47.26;91630.22;4996218;28;20049;-82
2024/03/24 04:00:47;;;;;;;0.63;0.60;;;;;;;2.94;46.85;91633.84;4996432;28;20038;-82
2024/03/24 04:03:14;;;;;;;0.73;0.73;;;;;;;2.93;46.94;91629.72;4996720;28;20362;-81
2024/03/24 04:05:41;;;;;;;0.80;0.70;;;;;;;2.89;46.88;91637.19;4995251;28;20458;-81
2024/03/24 04:08:07;;;;;;;0.85;0.70;;;;;;;2.86;46.75;91631.75;4995158;28;20121;-81
2024/03/24 04:10:34;;;;;;;0.60;0.60;;;;;;;2.82;46.38;91634.09;4995264;28;20042;-82
2024/03/24 04:13:00;;;;;;;0.60;0.60;;;;;;;2.80;46.55;91627.66;5000762;28;20107;-82
2024/03/24 04:15:26;;;;;;;1.02;0.70;;;;;;;2.78;45.87;91619.38;5013675;28;20050;-81
2024/03/24 04:17:51;;;;;;;0.70;0.70;;;;;;;2.80;45.72;91614.72;5014567;28;20052;-82
2024/03/24 04:20:17;;;;;;;1.15;0.70;;;;;;;2.78;46.18;91614.97;5015289;28;20049;-81
2024/03/24 04:22:45;;;;;;;0.73;0.73;;;;;;;2.78;46.15;91621.97;4997634;28;20052;-81
2024/03/24 04:25:10;;;;;;;0.90;0.75;;;;;;;2.74;46.78;91619.09;5014283;28;20046;-83
2024/03/24 04:27:36;;;;;;;0.75;0.70;;;;;;;2.67;46.39;91616.78;5018367;28;20064;-84
2024/03/24 04:30:02;;;;;;;1.90;0.70;;;;;;;2.62;45.50;91621.94;5019944;28;20453;-80
2024/03/24 04:32:28;;;;;;;0.82;0.70;;;;;;;2.57;45.68;91623.75;5014814;28;20037;-81
2024/03/24 04:34:53;;;;;;;1.42;0.90;;;;;;;2.56;44.88;91619.63;5014517;28;20180;-81
2024/03/24 04:37:21;;;;;;;0.77;0.70;;;;;;;2.50;46.28;91616.28;5015301;28;20045;-81
2024/03/24 04:39:47;;;;;;;0.60;0.60;;;;;;;2.43;46.19;91618.31;5024350;28;20644;-81
2024/03/24 04:42:13;;;;;;;0.60;0.60;;;;;;;2.41;46.82;91616.00;5020004;28;20048;-81
2024/03/24 04:44:39;;;;;;;0.73;0.68;;;;;;;2.36;47.00;91613.41;5013771;28;20328;-80
2024/03/24 04:47:04;;;;;;;1.05;0.73;;;;;;;2.34;46.77;91619.84;5013031;28;20121;-81
2024/03/24 04:49:30;;;;;;;0.80;0.80;;;;;;;2.25;47.37;91604.88;5014035;28;20061;-81
2024/03/24 04:51:57;;;;;;;1.15;0.70;;;;;;;2.32;47.29;91617.56;5013825;28;20037;-81
2024/03/24 04:54:22;;;;;;;0.98;0.75;;;;;;;2.31;47.56;91615.97;5014550;28;20095;-81
2024/03/24 04:56:48;;;;;;;0.93;0.80;;;;;;;2.29;47.50;91608.47;5014669;28;20679;-81
2024/03/24 04:59:14;;;;;;;0.73;0.70;;;;;;;2.24;48.25;91613.66;5014890;28;21347;-81
2024/03/24 05:01:39;;;;;;;0.70;0.70;;;;;;;2.22;47.57;91612.34;5015357;28;20037;-81
2024/03/24 05:04:05;;;;;;;0.70;0.60;;;;;;;2.24;46.44;91605.91;4994721;28;20529;-81
2024/03/24 05:06:31;;;;;;;1.02;0.82;;;;;;;2.25;46.62;91611.84;5024092;28;20131;-80
2024/03/24 05:08:58;;;;;;;0.80;0.80;;;;;;;2.23;47.28;91613.91;5022829;28;20037;-80
2024/03/24 05:11:25;;;;;;;0.70;0.70;;;;;;;2.22;46.63;91618.28;5020640;28;20039;-81
2024/03/24 05:13:50;;;;;;;1.13;0.88;;;;;;;2.21;46.47;91611.59;5024688;28;20063;-81
2024/03/24 05:16:17;;;;;;;0.60;0.60;;;;;;;2.23;47.32;91608.72;5025730;28;20030;-81
2024/03/24 05:18:43;;;;;;;1.58;0.68;;;;;;;2.22;47.27;91623.47;5015716;28;20049;-80
2024/03/24 05:21:08;;;;;;;3.72;0.88;;;;;;;2.23;47.08;91627.59;5024270;28;20030;-80
2024/03/24 05:23:34;;;;;;;1.17;0.90;;;;;;;2.28;46.62;91621.66;5000706;28;20087;-80
2024/03/24 05:25:59;;;;;;;0.70;0.70;;;;;;;2.31;46.38;91622.97;5017399;28;20160;-81
2024/03/24 05:28:25;;;;;;;2.78;1.00;;;;;;;2.39;45.58;91627.63;5021911;28;20045;-81
2024/03/24 05:30:51;;;;;;;1.15;0.77;;;;;;;2.45;45.36;91627.34;5019911;28;20039;-81
2024/03/24 05:33:17;;;;;;;0.68;0.63;;;;;;;2.50;44.96;91621.44;5018358;28;20032;-81
2024/03/24 05:35:44;;;;;;;1.58;0.70;;;;;;;2.62;44.78;91634.88;5000271;28;20038;-80
2024/03/24 05:38:10;;;;;;;0.70;0.70;;;;;;;2.69;44.73;91626.88;5019115;28;20038;-81
2024/03/24 05:40:35;;;;;;;0.70;0.70;;;;;;;2.84;44.44;91634.63;5016269;28;20443;-81
2024/03/24 05:43:01;;;;;;;0.95;0.77;;;;;;;2.93;44.34;91624.53;5014397;28;20072;-80
2024/03/24 05:45:26;;;;;;;0.60;0.60;;;;;;;3.11;44.27;91642.09;5013214;28;20041;-81
2024/03/24 05:47:52;;;;;;;0.80;0.80;;;;;;;3.29;44.17;91640.00;5014336;28;20045;-81
2024/03/24 05:50:17;;;;;;;1.55;0.75;;;;;;;3.48;43.64;91637.63;5018840;28;20561;-80
2024/03/24 05:52:43;;;;;;;0.70;0.70;;;;;;;3.84;42.10;91634.94;5024026;28;20034;-80
2024/03/24 05:55:09;;;;;;;1.00;0.90;;;;;;;4.98;40.14;91628.81;5001218;28;20413;-81
2024/03/24 05:57:36;;;;;;;1.17;0.85;;;;;;;6.23;38.29;91618.38;5029143;28;20398;-81
2024/03/24 06:00:04;;;;;;;0.70;0.70;;;;;;;7.34;35.60;91628.47;5017868;28;20044;-82
2024/03/24 06:02:37;;;;;;;0.88;0.70;;;;;;;8.44;34.36;91628.47;5017949;28;20029;-82
2024/03/24 06:05:02;;;;;;;0.77;0.77;;;;;;;9.36;33.06;91631.63;5017720;28;20045;-82
2024/03/24 06:07:29;;;;;;;2.50;0.75;;;;;;;10.13;32.79;91624.44;5019196;28;20405;-83
2024/03/24 06:09:54;;;;;;;2.50;0.90;;;;;;;10.93;30.96;91618.25;5019238;28;20037;-83
2024/03/24 06:12:21;;;;;;;2.95;1.15;;;;;;;11.65;29.32;91624.59;5018041;28;20041;-83
2024/03/24 06:14:47;;;;;;;0.95;0.80;;;;;;;12.15;29.10;91625.81;5018529;28;20227;-83
2024/03/24 06:17:13;;;;;;;1.10;0.82;;;;;;;12.45;28.93;91631.84;5019464;28;20029;-83
2024/03/24 06:19:40;;;;;;;0.88;0.82;;;;;;;13.16;28.90;91631.03;5028058;28;20103;-84
2024/03/24 06:22:06;;;;;;;1.77;0.65;;;;;;;13.79;28.16;91625.66;5023312;28;20042;-83
2024/03/24 06:24:31;;;;;;;1.10;0.80;;;;;;;14.10;26.98;91621.78;5002630;28;20041;-81
2024/03/24 06:26:57;;;;;;;2.03;0.70;;;;;;;14.42;26.67;91620.13;5008878;28;20044;-81
2024/03/24 06:29:23;;;;;;;1.05;0.70;;;;;;;14.80;25.22;91626.16;5019289;28;20415;-81
2024/03/24 06:31:49;;;;;;;0.73;0.73;;;;;;;15.17;26.01;91614.38;5025981;28;20033;-81
2024/03/24 06:34:14;;;;;;;0.85;0.63;;;;;;;15.52;25.61;91618.31;5011374;28;20438;-81
2024/03/24 06:36:41;;;;;;;1.45;0.73;;;;;;;15.83;25.07;91625.56;5010643;28;20029;-81
2024/03/24 06:39:08;;;;;;;0.77;0.60;;;;;;;16.44;25.59;91619.84;5023672;28;20107;-83
2024/03/24 06:41:41;;;;;;;1.10;0.70;;;;;;;16.70;23.89;91623.81;4997220;28;20034;-82
2024/03/24 06:44:13;;;;;;;2.45;1.35;;;;;;;18.08;23.26;91634.84;4985712;28;20036;-82
2024/03/24 06:46:39;;;;;;;1.77;0.88;;;;;;;17.80;23.23;91634.31;5015335;28;20127;-82
2024/03/24 06:49:05;;;;;;;1.25;0.70;;;;;;;18.29;22.81;91633.66;5032757;28;20044;-82
2024/03/24 06:51:31;;;;;;;0.82;0.60;;;;;;;18.99;21.51;91634.34;5020789;28;20033;-83
2024/03/24 06:53:56;;;;;;;1.33;0.75;;;;;;;18.90;21.88;91631.94;5017360;28;20060;-83
2024/03/24 06:56:22;;;;;;;0.68;0.63;;;;;;;19.07;21.99;91638.59;5020248;28;20037;-84
2024/03/24 06:58:47;;;;;;;1.00;0.50;;;;;;;20.24;21.08;91627.03;5030001;28;20030;-82
2024/03/24 07:01:13;;;;;;;0.70;0.63;;;;;;;19.33;20.80;91629.84;5031467;28;20041;-83
2024/03/24 07:03:38;;;;;;;1.67;0.90;;;;;;;18.62;20.71;91626.97;5005333;28;20048;-82
2024/03/24 07:06:05;;;;;;;1.13;0.57;;;;;;;17.96;22.33;91627.06;5033171;28;20041;-83
2024/03/24 07:08:31;;;;;;;0.40;0.40;;;;;;;17.98;21.47;91616.13;5031279;28;20033;-82
2024/03/24 07:10:56;;;;;;;0.93;0.70;;;;;;;17.09;22.74;91629.19;5007100;28;20048;-82
2024/03/24 07:13:22;;;;;;;0.93;0.65;;;;;;;17.21;23.67;91631.69;5048005;28;20057;-83
2024/03/24 07:15:48;;;;;;;1.40;0.70;;;;;;;17.58;22.57;91620.69;5028115;28;20108;-80
2024/03/24 07:18:14;;;;;;;0.50;0.50;;;;;;;17.47;22.56;91627.66;5048871;28;20156;-81
2024/03/24 07:20:39;;;;;;;1.83;0.68;;;;;;;16.09;24.37;91621.66;5035233;28;20132;-80
2024/03/24 07:23:05;;;;;;;0.60;0.47;;;;;;;15.34;24.31;91623.88;5030773;28;20502;-80
2024/03/24 07:25:30;;;;;;;2.80;0.93;;;;;;;14.46;26.68;91638.66;5054464;28;20072;-80
2024/03/24 07:27:56;;;;;;;2.08;0.82;;;;;;;13.58;26.61;91635.47;5050348;28;20383;-81
2024/03/24 07:30:22;;;;;;;1.80;1.20;;;;;;;12.62;27.22;91633.59;5055639;28;20067;-82
2024/03/24 07:32:48;;;;;;;1.02;0.80;;;;;;;12.30;29.66;91625.28;5051654;28;20618;-81
2024/03/24 07:35:13;;;;;;;0.80;0.63;;;;;;;11.73;31.48;91631.69;5053703;28;20088;-81
2024/03/24 07:37:39;;;;;;;1.00;0.77;;;;;;;11.53;31.48;91627.06;5047529;28;20032;-81
2024/03/24 07:40:07;;;;;;;1.15;0.80;;;;;;;11.30;33.16;91627.28;5043527;28;20490;-81
2024/03/24 07:42:34;;;;;;;0.85;0.80;;;;;;;10.91;34.10;91631.63;5049258;28;20124;-81
2024/03/24 07:44:59;;;;;;;0.93;0.70;;;;;;;10.52;34.59;91614.22;5051222;28;20124;-81
2024/03/24 07:47:26;;;;;;;2.85;0.75;;;;;;;10.49;35.34;91620.84;5045345;28;20036;-81
2024/03/24 07:49:53;;;;;;;2.83;1.67;;;;;;;10.23;35.30;91630.44;5044720;28;20373;-82
2024/03/24 07:52:18;;;;;;;0.93;0.60;;;;;;;10.32;37.17;91628.66;5047639;28;20261;-80
2024/03/24 07:54:44;;;;;;;0.60;0.60;;;;;;;10.04;36.51;91623.59;5049052;28;20037;-82
2024/03/24 07:57:09;;;;;;;0.98;0.70;;;;;;;9.80;37.10;91632.59;5029257;28;20456;-82
2024/03/24 07:59:35;;;;;;;3.90;1.92;;;;;;;9.88;37.32;91636.31;5046208;28;20127;-80
2024/03/24 08:02:00;;;;;;;0.98;0.85;;;;;;;10.00;38.26;91641.75;5056387;28;20033;-81
2024/03/24 08:04:26;;;;;;;1.35;0.80;;;;;;;10.10;36.02;91638.09;5043663;28;20099;-82
2024/03/24 08:06:51;;;;;;;2.15;1.10;;;;;;;9.86;39.65;91632.47;5031027;28;20036;-81
2024/03/24 08:09:17;;;;;;;1.55;1.05;;;;;;;9.69;37.79;91639.16;5048095;28;20039;-81
2024/03/24 08:11:42;;;;;;;1.88;1.00;;;;;;;10.03;37.46;91648.22;5044757;28;20144;-81
2024/03/24 08:14:08;;;;;;;1.15;0.93;;;;;;;10.06;37.94;91649.47;5041983;28;20036;-81
2024/03/24 08:16:34;;;;;;;0.90;0.82;;;;;;;10.34;37.58;91650.03;5023663;28;20281;-82
2024/03/24 08:18:59;;;;;;;1.08;0.80;;;;;;;10.42;33.83;91649.28;5042972;28;20406;-81
2024/03/24 08:21:26;;;;;;;3.92;1.70;;;;;;;10.42;36.75;91654.50;5043469;28;20037;-82
2024/03/24 08:23:51;;;;;;;1.77;0.90;;;;;;;10.66;36.76;91648.88;5043816;28;20048;-82
2024/03/24 08:26:17;;;;;;;0.60;0.60;;;;;;;10.57;33.09;91651.47;5041321;28;20037;-80
2024/03/24 08:28:43;;;;;;;1.35;0.82;;;;;;;10.49;34.38;91654.84;5044002;28;20044;-81
2024/03/24 08:31:08;;;;;;;0.95;0.80;;;;;;;10.33;34.45;91649.25;5027178;28;20047;-82
2024/03/24 08:33:34;;;;;;;2.15;0.88;;;;;;;10.27;32.68;91662.75;5043913;28;20128;-81
2024/03/24 08:35:59;;;;;;;2.03;1.00;;;;;;;10.27;33.21;91655.69;5025878;28;20064;-82
2024/03/24 08:38:26;;;;;;;0.70;0.68;;;;;;;10.21;33.60;91662.13;5044651;28;20055;-81
2024/03/24 08:40:51;;;;;;;0.63;0.63;;;;;;;10.44;32.80;91662.81;5043980;28;20041;-81
2024/03/24 08:43:17;;;;;;;2.90;1.50;;;;;;;10.47;33.42;91656.22;5045789;28;20040;-81
2024/03/24 08:45:42;;;;;;;1.38;0.75;;;;;;;10.34;33.91;91661.28;5044290;28;20048;-80
2024/03/24 08:48:08;;;;;;;1.30;0.70;;;;;;;10.52;33.34;91669.94;5044977;28;20036;-80
2024/03/24 08:50:34;;;;;;;1.20;0.70;;;;;;;10.50;30.63;91666.84;5046250;28;20124;-82
2024/03/24 08:52:59;;;;;;;0.70;0.70;;;;;;;10.77;31.29;91667.66;5043170;28;20149;-81
2024/03/24 08:55:25;;;;;;;1.17;0.90;;;;;;;10.84;34.92;91663.50;5040438;28;20049;-82
2024/03/24 08:57:51;;;;;;;0.70;0.70;;;;;;;10.88;34.36;91655.81;5043015;28;20049;-82
2024/03/24 09:00:17;;;;;;;0.70;0.70;;;;;;;10.74;31.70;91665.66;5047955;28;20045;-81
2024/03/24 09:02:43;;;;;;;0.70;0.70;;;;;;;10.57;35.95;91661.94;5026212;28;20402;-82
2024/03/24 09:05:08;;;;;;;0.70;0.70;;;;;;;10.28;34.75;91670.31;5024280;28;20033;-82
2024/03/24 09:07:34;;;;;;;0.90;0.85;;;;;;;10.46;33.83;91665.16;5043126;28;20033;-82
2024/03/24 09:10:00;;;;;;;0.95;0.80;;;;;;;10.79;32.92;91657.66;5023601;28;20480;-82
2024/03/24 09:12:25;;;;;;;0.75;0.75;;;;;;;10.81;32.91;91660.75;5040258;28;20121;-82
2024/03/24 09:14:51;;;;;;;1.52;1.15;;;;;;;11.11;33.08;91664.28;5046557;28;20037;-82
2024/03/24 09:17:16;;;;;;;2.38;1.45;;;;;;;11.03;34.86;91657.19;5044356;28;20096;-80
2024/03/24 09:19:42;;;;;;;2.35;1.10;;;;;;;11.12;32.33;91667.66;5036870;28;20033;-80
2024/03/24 09:22:08;;;;;;;1.05;1.00;;;;;;;11.36;30.49;91660.09;5038104;28;20040;-79
2024/03/24 09:24:33;;;;;;;0.63;0.63;;;;;;;11.58;30.30;91666.25;5035666;28;20071;-81
2024/03/24 09:27:00;;;;;;;1.17;0.93;;;;;;;11.13;29.09;91664.75;5040258;28;20029;-81
2024/03/24 09:29:26;;;;;;;0.65;0.65;;;;;;;11.22;30.55;91659.50;5041879;28;20560;-81
2024/03/24 09:31:51;;;;;;;5.68;2.33;;;;;;;11.17;29.47;91670.91;5038687;28;20033;-80
2024/03/24 09:34:17;;;;;;;0.85;0.70;;;;;;;11.06;30.04;91661.84;5045052;28;20045;-80
2024/03/24 09:36:43;;;;;;;1.05;0.88;;;;;;;10.65;30.46;91663.03;5023132;28;20040;-80
2024/03/24 09:39:08;;;;;;;0.73;0.73;;;;;;;10.85;29.60;91661.66;5038614;28;20794;-81
2024/03/24 09:41:44;;;;;;;0.65;0.65;;;;;;;10.57;29.99;91666.41;5042952;28;20069;-80
2024/03/24 09:44:11;;;;;;;1.00;0.80;;;;;;;10.54;31.81;91662.56;5043912;28;20549;-80
2024/03/24 09:46:43;;;;;;;0.82;0.60;;;;;;;10.52;30.08;91662.09;5037181;28;20052;-80
2024/03/24 09:49:14;;;;;;;1.17;0.70;;;;;;;10.82;29.56;91664.88;5040014;28;20048;-81
2024/03/24 09:51:40;;;;;;;0.80;0.80;;;;;;;10.33;30.86;91666.81;5022858;28;20791;-80
2024/03/24 09:54:10;;;;;;;0.50;0.50;;;;;;;10.28;31.45;91661.69;5042094;28;20040;-81
2024/03/24 09:56:37;;;;;;;0.68;0.68;;;;;;;10.31;31.08;91655.88;5035626;28;20806;-80
2024/03/24 09:59:03;;;;;;;0.80;0.65;;;;;;;10.26;29.86;91656.00;5033633;28;20499;-81
2024/03/24 10:01:33;;;;;;;0.85;0.80;;;;;;;10.69;31.99;91663.19;5036473;28;20427;-79
2024/03/24 10:04:00;;;;;;;1.05;0.75;;;;;;;10.50;32.63;91655.63;5012556;28;20084;-80
2024/03/24 10:06:26;;;;;;;1.58;1.02;;;;;;;10.33;33.60;91651.09;5037791;28;20125;-80
2024/03/24 10:08:52;;;;;;;0.77;0.60;;;;;;;10.00;29.84;91651.44;5036771;28;20030;-81
2024/03/24 10:11:31;;;;;;;1.58;0.88;;;;;;;10.56;31.69;91644.69;5036427;28;20106;-81
2024/03/24 10:13:59;;;;;;;0.80;0.80;;;;;;;11.05;30.66;91647.19;5034196;28;20047;-80
2024/03/24 10:16:24;;;;;;;0.60;0.60;;;;;;;10.95;30.44;91640.41;5035753;28;20041;-81
2024/03/24 10:18:51;;;;;;;1.73;0.88;;;;;;;10.84;31.01;91639.19;5015156;28;20040;-81
2024/03/24 10:21:17;;;;;;;0.88;0.88;;;;;;;10.57;30.25;91629.75;5038203;28;20045;-79
2024/03/24 10:23:44;;;;;;;0.75;0.65;;;;;;;10.52;30.25;91628.06;5037736;28;20072;-80
2024/03/24 10:26:10;;;;;;;1.17;0.80;;;;;;;10.48;31.04;91636.84;5043942;28;20033;-81
2024/03/24 10:28:35;;;;;;;0.77;0.73;;;;;;;11.01;30.84;91633.16;5045441;28;20087;-80
2024/03/24 10:31:05;;;;;;;0.75;0.70;;;;;;;11.19;29.45;91631.28;5042655;28;20069;-82
2024/03/24 10:33:35;;;;;;;0.60;0.60;;;;;;;11.01;29.77;91630.53;5042567;28;20103;-80
2024/03/24 10:36:01;;;;;;;0.60;0.60;;;;;;;10.99;30.47;91625.63;5040401;28;20118;-82
2024/03/24 10:38:30;;;;;;;1.10;0.80;;;;;;;10.85;29.46;91635.47;5045277;28;20040;-81
2024/03/24 10:40:57;;;;;;;0.75;0.68;;;;;;;11.25;29.27;91630.81;5045638;28;20041;-81
2024/03/24 10:43:24;;;;;;;1.08;0.80;;;;;;;11.22;28.77;91626.22;5046834;28;20111;-81
2024/03/24 10:45:54;;;;;;;1.27;0.75;;;;;;;11.36;28.91;91623.41;5048182;28;20525;-80
2024/03/24 10:48:33;;;;;;;0.85;0.82;;;;;;;11.97;30.02;91630.38;5051422;28;20471;-81
2024/03/24 10:51:01;;;;;;;0.88;0.80;;;;;;;11.71;27.78;91618.09;5025108;28;20037;-80
2024/03/24 10:53:33;;;;;;;0.98;0.90;;;;;;;11.42;29.73;91614.31;5028673;28;20043;-80
2024/03/24 10:55:59;;;;;;;;;;;;;;;11.84;29.28;91605.84;5044830;28;20033;-81
2024/03/24 10:58:25;;;;;;;1.77;1.00;;;;;;;11.72;28.33;91608.38;5049433;28;20325;-80
2024/03/24 11:00:52;;;;;;;0.95;0.80;;;;;;;11.60;29.02;91609.81;5052245;28;20093;-80
2024/03/24 11:03:19;;;;;;;0.93;0.70;;;;;;;11.34;28.82;91611.72;5048393;28;20104;-81
2024/03/24 11:05:46;;;;;;;0.70;0.70;;;;;;;11.15;29.98;91607.59;5048537;28;20552;-80
2024/03/24 11:08:15;;;;;;;1.05;0.80;;;;;;;11.36;29.28;91610.31;5041038;28;20048;-81
2024/03/24 11:10:49;;;;;;;0.82;0.63;;;;;;;11.69;28.41;91609.78;5042682;28;20033;-81
2024/03/24 11:13:18;;;;;;;1.27;0.95;;;;;;;11.80;30.21;91620.69;5023333;28;20077;-81
2024/03/24 11:15:48;;;;;;;0.80;0.80;;;;;;;12.02;27.94;91609.22;5021900;28;20025;-82
2024/03/24 11:18:25;;;;;;;1.05;0.88;;;;;;;11.51;28.41;91603.81;5025181;28;20061;-81
2024/03/24 11:20:55;;;;;;;1.02;0.93;;;;;;;11.62;29.91;91609.50;5023638;28;20088;-82
2024/03/24 11:23:23;;;;;;;0.77;0.77;;;;;;;11.50;29.29;91599.66;5042710;28;20030;-83
2024/03/24 11:25:56;;;;;;;0.93;0.80;;;;;;;12.13;33.37;91601.75;5022480;28;20368;-81
2024/03/24 11:28:50;;;;;;;2.65;0.90;;;;;;;12.60;30.99;91610.28;5024165;28;20049;-82
2024/03/24 11:31:32;;;;;;;1.52;0.90;;;;;;;12.21;28.18;91604.34;5022913;28;20061;-81
2024/03/24 11:34:03;;;;;;;0.63;0.63;;;;;;;11.53;28.06;91603.50;5025704;28;20025;-81
2024/03/24 11:36:32;;;;;;;1.33;0.85;;;;;;;11.30;28.75;91593.22;5019832;28;20536;-81